createdAt,value
2023-04-14T00:00:49.080Z,101328.25
2023-04-14T00:03:18.063Z,101327.53
2023-04-14T00:05:46.361Z,101336.00
2023-04-14T00:08:14.456Z,101341.44
2023-04-14T00:10:42.504Z,101340.72
2023-04-14T00:13:12.036Z,101339.84
2023-04-14T00:15:41.482Z,101321.75
2023-04-14T00:18:09.461Z,101341.41
2023-04-14T00:20:37.430Z,101353.09
2023-04-14T00:23:05.435Z,101357.38
2023-04-14T00:25:33.401Z,101359.22
2023-04-14T00:28:01.386Z,101360.34
2023-04-14T00:30:31.054Z,101360.50
2023-04-14T00:32:59.079Z,101362.72
2023-04-14T00:35:27.217Z,101356.75
2023-04-14T00:37:56.640Z,101361.91
2023-04-14T00:40:24.738Z,101359.91
2023-04-14T00:42:52.808Z,101364.44
2023-04-14T00:45:21.076Z,101372.72
2023-04-14T00:47:51.092Z,101372.72
2023-04-14T00:50:20.651Z,101365.13
2023-04-14T00:52:50.602Z,101367.56
2023-04-14T00:55:20.552Z,101381.81
2023-04-14T00:57:49.076Z,101376.66
2023-04-14T01:00:18.018Z,101371.13
2023-04-14T01:02:46.575Z,101370.97
2023-04-14T01:05:16.373Z,101372.72
2023-04-14T01:07:45.200Z,101379.69
2023-04-14T01:10:13.566Z,101346.75
2023-04-14T01:12:59.729Z,101363.31
2023-04-14T01:15:35.572Z,101375.59
2023-04-14T01:18:11.570Z,101383.69
2023-04-14T01:20:44.437Z,101379.13
2023-04-14T01:23:18.769Z,101378.13
2023-04-14T01:26:14.969Z,101379.72
2023-04-14T01:29:29.696Z,101380.69
2023-04-14T01:32:03.311Z,101377.00
2023-04-14T01:34:37.681Z,101382.41
2023-04-14T01:37:09.664Z,101384.13
2023-04-14T01:39:42.569Z,101382.25
2023-04-14T01:42:16.110Z,101397.66
2023-04-14T01:44:45.313Z,101380.41
2023-04-14T01:47:18.768Z,101383.88
2023-04-14T01:49:48.800Z,101386.41
2023-04-14T01:52:18.259Z,101387.41
2023-04-14T01:54:49.833Z,101393.66
2023-04-14T01:57:22.772Z,101394.38
2023-04-14T01:59:55.669Z,101390.84
2023-04-14T02:02:27.155Z,101388.13
2023-04-14T02:04:57.519Z,101352.34
2023-04-14T02:07:27.084Z,101369.31
2023-04-14T02:09:57.916Z,101393.66
2023-04-14T02:12:27.886Z,101401.78
2023-04-14T02:14:56.497Z,101395.50
2023-04-14T02:17:26.394Z,101394.78
2023-04-14T02:19:55.127Z,101394.38
2023-04-14T02:22:23.273Z,101382.56
2023-04-14T02:24:51.406Z,101391.97
2023-04-14T02:27:26.590Z,101386.25
2023-04-14T02:29:57.441Z,101396.63
2023-04-14T02:32:31.187Z,101370.41
2023-04-14T02:35:06.075Z,101389.22
2023-04-14T02:37:40.443Z,101401.59
2023-04-14T02:40:14.016Z,101396.47
2023-04-14T02:42:44.625Z,101388.59
2023-04-14T02:45:17.448Z,101396.88
2023-04-14T02:47:51.495Z,101407.00
2023-04-14T02:50:20.592Z,101408.38
2023-04-14T02:53:01.675Z,101395.72
2023-04-14T02:55:36.699Z,101397.72
2023-04-14T02:58:05.373Z,101399.56
2023-04-14T03:00:39.334Z,101407.69
2023-04-14T03:03:09.446Z,101404.38
2023-04-14T03:05:40.079Z,101411.34
2023-04-14T03:08:12.107Z,101412.50
2023-04-14T03:10:46.142Z,101420.59
2023-04-14T03:13:16.700Z,101414.47
2023-04-14T03:15:46.869Z,101415.47
2023-04-14T03:18:17.759Z,101414.59
2023-04-14T03:20:47.340Z,101428.84
2023-04-14T03:23:19.560Z,101427.13
2023-04-14T03:25:57.270Z,101426.28
2023-04-14T03:28:31.068Z,101429.22
2023-04-14T03:31:03.801Z,101419.97
2023-04-14T03:33:56.492Z,101435.38
2023-04-14T03:36:32.222Z,101425.28
2023-04-14T03:39:03.394Z,101418.16
2023-04-14T03:41:37.828Z,101431.28
2023-04-14T03:44:15.559Z,101377.81
2023-04-14T03:46:46.782Z,101430.00
2023-04-14T03:49:20.150Z,101432.56
2023-04-14T03:51:52.455Z,101429.88
2023-04-14T03:54:24.112Z,101432.56
2023-04-14T03:56:56.828Z,101436.00
2023-04-14T03:59:28.621Z,101405.06
2023-04-14T04:01:58.222Z,101438.41
2023-04-14T04:04:28.327Z,101441.00
2023-04-14T04:06:58.779Z,101438.31
2023-04-14T04:09:29.846Z,101442.72
2023-04-14T04:11:59.970Z,101438.91
2023-04-14T04:14:31.164Z,101436.91
2023-04-14T04:17:03.344Z,101447.56
2023-04-14T04:19:35.071Z,101449.16
2023-04-14T04:22:04.783Z,101411.19
2023-04-14T04:24:40.272Z,101453.56
2023-04-14T04:27:26.577Z,101463.69
2023-04-14T04:29:58.609Z,101455.56
2023-04-14T04:32:27.337Z,101463.38
2023-04-14T04:34:58.631Z,101457.97
2023-04-14T04:37:29.030Z,101450.88
2023-04-14T04:39:59.009Z,101458.97
2023-04-14T04:42:28.073Z,101455.25
2023-04-14T04:44:57.241Z,101463.38
2023-04-14T04:47:25.646Z,101471.78
2023-04-14T04:49:53.575Z,101444.00
2023-04-14T04:52:23.006Z,101419.34
2023-04-14T04:54:52.583Z,101442.34
2023-04-14T04:57:21.192Z,101447.09
2023-04-14T04:59:49.177Z,101448.53
2023-04-14T05:02:17.559Z,101444.44
2023-04-14T05:04:45.562Z,101450.28
2023-04-14T05:07:13.570Z,101455.28
2023-04-14T05:09:43.040Z,101458.56
2023-04-14T05:12:11.122Z,101459.28
2023-04-14T05:14:39.290Z,101458.00
2023-04-14T05:17:07.352Z,101463.28
2023-04-14T05:19:35.653Z,101460.56
2023-04-14T05:22:03.609Z,101458.56
2023-04-14T05:24:31.494Z,101467.56
2023-04-14T05:27:13.897Z,101460.28
2023-04-14T05:29:43.030Z,101467.41
2023-04-14T05:32:12.912Z,101463.72
2023-04-14T05:34:40.996Z,101462.69
2023-04-14T05:37:09.075Z,101461.72
2023-04-14T05:39:37.197Z,101464.16
2023-04-14T05:42:06.714Z,101463.00
2023-04-14T05:44:34.763Z,101468.28
2023-04-14T05:47:02.805Z,101465.44
2023-04-14T05:49:31.148Z,101462.59
2023-04-14T05:51:59.221Z,101465.03
2023-04-14T05:54:27.150Z,101467.44
2023-04-14T05:56:56.421Z,101469.88
2023-04-14T05:59:25.962Z,101468.78
2023-04-14T06:01:54.088Z,101476.75
2023-04-14T06:04:22.380Z,101472.19
2023-04-14T06:06:50.561Z,101479.28
2023-04-14T06:09:18.870Z,101480.84
2023-04-14T06:11:46.891Z,101470.03
2023-04-14T06:14:14.957Z,101477.16
2023-04-14T06:16:44.328Z,101479.03
2023-04-14T06:19:12.272Z,101484.59
2023-04-14T06:21:40.326Z,101484.59
2023-04-14T06:24:08.755Z,101479.16
2023-04-14T06:26:36.873Z,101491.84
2023-04-14T06:29:07.435Z,101494.56
2023-04-14T06:31:35.728Z,101489.84
2023-04-14T06:34:05.199Z,101491.69
2023-04-14T06:36:33.315Z,101499.69
2023-04-14T06:39:02.107Z,101481.44
2023-04-14T06:41:30.421Z,101498.56
2023-04-14T06:43:58.531Z,101513.06
2023-04-14T06:46:26.675Z,101518.75
2023-04-14T06:48:54.727Z,101517.06
2023-04-14T06:51:24.097Z,101526.06
2023-04-14T06:53:52.390Z,101526.19
2023-04-14T06:56:20.732Z,101529.16
2023-04-14T06:58:48.778Z,101528.41
2023-04-14T07:01:16.980Z,101528.56
2023-04-14T07:03:45.532Z,101511.16
2023-04-14T07:06:17.278Z,101530.97
2023-04-14T07:08:46.873Z,101524.13
2023-04-14T07:11:14.965Z,101556.00
2023-04-14T07:13:43.053Z,101557.72
2023-04-14T07:16:11.352Z,101550.75
2023-04-14T07:18:39.407Z,101551.91
2023-04-14T07:21:07.515Z,101553.47
2023-04-14T07:23:35.483Z,101533.75
2023-04-14T07:26:04.926Z,101563.16
2023-04-14T07:28:33.477Z,101563.09
2023-04-14T07:31:08.936Z,101561.38
2023-04-14T07:33:37.134Z,101566.28
2023-04-14T07:36:07.289Z,101563.75
2023-04-14T07:38:35.560Z,101559.56
2023-04-14T07:41:07.001Z,101566.44
2023-04-14T07:43:36.018Z,101578.44
2023-04-14T07:46:05.656Z,101578.72
2023-04-14T07:48:34.798Z,101578.03
2023-04-14T07:51:03.155Z,101582.63
2023-04-14T07:53:31.697Z,101588.06
2023-04-14T07:55:59.924Z,101596.91
2023-04-14T07:58:29.888Z,101596.56
2023-04-14T08:00:58.359Z,101596.34
2023-04-14T08:03:26.671Z,101598.81
2023-04-14T08:05:55.027Z,101587.75
2023-04-14T08:08:23.174Z,101584.09
2023-04-14T08:10:51.154Z,101592.44
2023-04-14T08:13:19.220Z,101589.38
2023-04-14T08:15:48.791Z,101592.44
2023-04-14T08:18:16.784Z,101600.16
2023-04-14T08:20:44.820Z,101583.88
2023-04-14T08:23:12.881Z,101597.34
2023-04-14T08:25:40.850Z,101606.66
2023-04-14T08:28:08.896Z,101592.56
2023-04-14T08:30:37.133Z,101597.44
2023-04-14T08:33:07.046Z,101593.16
2023-04-14T08:35:41.988Z,101547.41
2023-04-14T08:38:11.299Z,101589.25
2023-04-14T08:40:40.935Z,101587.75
2023-04-14T08:43:09.406Z,101588.84
2023-04-14T08:45:37.738Z,101588.06
2023-04-14T08:48:07.281Z,101590.91
2023-04-14T08:50:38.820Z,101601.81
2023-04-14T08:53:10.036Z,101590.41
2023-04-14T08:55:40.428Z,101606.81
2023-04-14T08:58:10.548Z,101604.34
2023-04-14T09:00:40.148Z,101607.53
2023-04-14T09:03:10.066Z,101600.44
2023-04-14T09:05:38.673Z,101573.66
2023-04-14T09:08:06.791Z,101615.47
2023-04-14T09:10:36.779Z,101621.09
2023-04-14T09:13:06.667Z,101620.25
2023-04-14T09:15:34.769Z,101614.22
2023-04-14T09:18:03.378Z,101617.16
2023-04-14T09:20:37.689Z,101619.97
2023-04-14T09:23:10.020Z,101629.16
2023-04-14T09:25:39.578Z,101631.19
2023-04-14T09:28:07.969Z,101600.38
2023-04-14T09:30:36.338Z,101637.81
2023-04-14T09:33:06.409Z,101645.13
2023-04-14T09:35:47.380Z,101638.13
2023-04-14T09:38:16.740Z,101643.00
2023-04-14T09:40:45.389Z,101652.19
2023-04-14T09:43:26.974Z,101651.31
2023-04-14T09:45:56.286Z,101648.94
2023-04-14T09:48:24.448Z,101657.25
2023-04-14T09:51:06.646Z,101652.09
2023-04-14T09:53:35.931Z,101648.03
2023-04-14T09:56:06.121Z,101656.00
2023-04-14T09:58:35.248Z,101672.38
2023-04-14T10:01:04.627Z,101667.19
2023-04-14T10:03:40.291Z,101666.47
2023-04-14T10:06:10.800Z,101675.63
2023-04-14T10:08:41.044Z,101679.53
2023-04-14T10:11:16.986Z,101682.31
2023-04-14T10:13:45.625Z,101672.00
2023-04-14T10:16:13.624Z,101683.63
2023-04-14T10:18:41.650Z,101678.69
2023-04-14T10:21:11.731Z,101674.28
2023-04-14T10:23:41.211Z,101651.00
2023-04-14T10:26:11.372Z,101680.34
2023-04-14T10:28:41.927Z,101677.09
2023-04-14T10:31:13.804Z,101682.38
2023-04-14T10:33:42.262Z,101672.69
2023-04-14T10:36:11.668Z,101675.59
2023-04-14T10:38:42.266Z,101678.63
2023-04-14T10:41:11.221Z,101691.34
2023-04-14T10:43:39.802Z,101696.81
2023-04-14T10:46:09.745Z,101684.75
2023-04-14T10:48:39.710Z,101693.69
2023-04-14T10:51:09.831Z,101622.16
2023-04-14T10:53:46.305Z,101713.69
2023-04-14T10:56:14.655Z,101707.69
2023-04-14T10:58:42.887Z,101714.13
2023-04-14T11:01:27.278Z,101707.88
2023-04-14T11:03:56.339Z,101714.34
2023-04-14T11:06:53.583Z,101695.59
2023-04-14T11:09:27.709Z,101701.19
2023-04-14T11:11:57.652Z,101687.88
2023-04-14T11:14:31.473Z,101704.00
2023-04-14T11:17:03.960Z,101701.53
2023-04-14T11:19:33.767Z,101695.28
2023-04-14T11:22:01.891Z,101692.59
2023-04-14T11:24:32.564Z,101699.81
2023-04-14T11:27:00.608Z,101696.25
2023-04-14T11:29:31.557Z,101705.50
2023-04-14T11:32:04.100Z,101706.03
2023-04-14T11:34:32.911Z,101704.34
2023-04-14T11:37:03.706Z,101695.28
2023-04-14T11:39:35.651Z,101700.03
2023-04-14T11:42:05.320Z,101705.19
2023-04-14T11:44:33.841Z,101703.34
2023-04-14T11:47:01.901Z,101710.47
2023-04-14T11:49:36.593Z,101667.13
2023-04-14T11:52:10.543Z,101702.38
2023-04-14T11:54:40.712Z,101694.44
2023-04-14T11:57:12.304Z,101711.53
2023-04-14T11:59:44.561Z,101709.81
2023-04-14T12:02:18.417Z,101708.09
2023-04-14T12:04:49.358Z,101705.50
2023-04-14T12:07:20.107Z,101679.16
2023-04-14T12:09:50.590Z,101697.63
2023-04-14T12:12:20.097Z,101728.94
2023-04-14T12:14:49.783Z,101703.00
2023-04-14T12:17:20.399Z,101696.81
2023-04-14T12:19:48.933Z,101711.19
2023-04-14T12:22:25.020Z,101699.78
2023-04-14T12:24:54.988Z,101713.88
2023-04-14T12:27:24.635Z,101703.56
2023-04-14T12:29:53.336Z,101717.53
2023-04-14T12:32:22.887Z,101714.84
2023-04-14T12:34:57.466Z,101727.34
2023-04-14T12:37:27.512Z,101722.91
2023-04-14T12:39:59.434Z,101716.59
2023-04-14T12:42:28.506Z,101713.13
2023-04-14T12:44:58.918Z,101712.16
2023-04-14T12:47:31.267Z,101709.47
2023-04-14T12:50:00.525Z,101711.53
2023-04-14T12:52:37.037Z,101684.72
2023-04-14T12:55:08.755Z,101701.06
2023-04-14T12:57:37.284Z,101688.81
2023-04-14T13:00:05.950Z,101700.13
2023-04-14T13:02:35.918Z,101699.25
2023-04-14T13:05:04.981Z,101704.75
2023-04-14T13:07:33.087Z,101707.44
2023-04-14T13:10:01.406Z,101702.16
2023-04-14T13:12:30.716Z,101697.84
2023-04-14T13:14:58.654Z,101692.59
2023-04-14T13:17:27.578Z,101692.69
2023-04-14T13:19:57.009Z,101699.91
2023-04-14T13:22:25.432Z,101692.69
2023-04-14T13:24:53.489Z,101693.13
2023-04-14T13:27:21.460Z,101693.88
2023-04-14T13:29:50.815Z,101691.19
2023-04-14T13:32:19.102Z,101688.59
2023-04-14T13:34:48.101Z,101691.59
2023-04-14T13:37:17.965Z,101689.69
2023-04-14T13:39:46.212Z,101696.97
2023-04-14T13:42:15.251Z,101704.94
2023-04-14T13:44:43.180Z,101687.19
2023-04-14T13:47:12.543Z,101692.44
2023-04-14T13:49:40.473Z,101687.41
2023-04-14T13:52:09.415Z,101655.44
2023-04-14T13:54:37.353Z,101702.34
2023-04-14T13:57:05.333Z,101701.38
2023-04-14T13:59:33.378Z,101704.28
2023-04-14T14:02:01.457Z,101688.97
2023-04-14T14:04:31.174Z,101713.00
2023-04-14T14:06:59.130Z,101715.56
2023-04-14T14:09:27.617Z,101717.38
2023-04-14T14:11:56.067Z,101714.69
2023-04-14T14:14:24.191Z,101698.25
2023-04-14T14:16:52.192Z,101717.38
2023-04-14T14:19:20.279Z,101721.81
2023-04-14T14:21:49.809Z,101727.31
2023-04-14T14:24:17.913Z,101721.06
2023-04-14T14:26:45.927Z,101725.56
2023-04-14T14:29:14.012Z,101726.44
2023-04-14T14:31:42.222Z,101721.94
2023-04-14T14:34:10.460Z,101707.72
2023-04-14T14:36:38.500Z,101730.75
2023-04-14T14:39:09.132Z,101730.75
2023-04-14T14:41:37.481Z,101721.06
2023-04-14T14:46:34.568Z,101724.41
2023-04-14T14:49:02.645Z,101723.63
2023-04-14T14:51:31.925Z,101729.00
2023-04-14T14:54:09.183Z,101733.50
2023-04-14T14:56:39.482Z,101706.03
2023-04-14T14:59:08.527Z,101725.56
2023-04-14T15:01:36.868Z,101725.69
2023-04-14T15:04:06.520Z,101708.94
2023-04-14T15:06:35.924Z,101711.03
2023-04-14T15:09:05.402Z,101732.97
2023-04-14T15:11:33.476Z,101721.09
2023-04-14T15:14:03.432Z,101740.41
2023-04-14T15:16:31.711Z,101726.28
2023-04-14T15:18:59.619Z,101716.44
2023-04-14T15:21:27.647Z,101739.84
2023-04-14T15:23:55.743Z,101719.03
2023-04-14T15:26:23.798Z,101736.34
2023-04-14T15:28:51.826Z,101740.88
2023-04-14T15:31:21.229Z,101735.50
2023-04-14T15:33:49.252Z,101731.09
2023-04-14T15:36:17.221Z,101737.31
2023-04-14T15:38:49.818Z,101741.81
2023-04-14T15:41:17.747Z,101733.78
2023-04-14T15:43:45.805Z,101735.59
2023-04-14T15:46:14.886Z,101750.97
2023-04-14T15:48:44.460Z,101741.16
2023-04-14T15:51:12.579Z,101734.97
2023-04-14T15:53:40.406Z,101738.78
2023-04-14T15:56:08.413Z,101743.28
2023-04-14T15:58:36.929Z,101740.06
2023-04-14T16:01:08.157Z,101738.56
2023-04-14T16:03:37.042Z,101752.06
2023-04-14T16:06:08.421Z,101760.34
2023-04-14T16:08:36.642Z,101749.03
2023-04-14T16:11:04.940Z,101750.50
2023-04-14T16:13:32.877Z,101747.63
2023-04-14T16:16:01.193Z,101758.75
2023-04-14T16:18:29.219Z,101741.41
2023-04-14T16:20:57.257Z,101748.53
2023-04-14T16:23:28.739Z,101752.34
2023-04-14T16:25:57.578Z,101754.47
2023-04-14T16:28:25.808Z,101752.97
2023-04-14T16:30:55.186Z,101754.09
2023-04-14T16:33:23.209Z,101745.41
2023-04-14T16:35:51.140Z,101748.28
2023-04-14T16:38:19.029Z,101756.53
2023-04-14T16:40:55.608Z,101753.34
2023-04-14T16:43:23.716Z,101725.94
2023-04-14T16:45:52.390Z,101759.78
2023-04-14T16:48:20.488Z,101756.41
2023-04-14T16:50:48.622Z,101765.41
2023-04-14T16:53:16.901Z,101752.28
2023-04-14T16:55:45.282Z,101792.81
2023-04-14T16:58:14.770Z,101776.72
2023-04-14T17:00:43.326Z,101769.72
2023-04-14T17:03:11.691Z,101767.44
2023-04-14T17:05:39.826Z,101775.47
2023-04-14T17:08:07.797Z,101779.19
2023-04-14T17:10:35.764Z,101779.31
2023-04-14T17:13:03.980Z,101782.19
2023-04-14T17:15:33.332Z,101778.75
2023-04-14T17:18:01.455Z,101788.97
2023-04-14T17:20:30.328Z,101779.47
2023-04-14T17:23:00.291Z,101781.84
2023-04-14T17:25:28.706Z,101780.22
2023-04-14T17:27:56.916Z,101790.19
2023-04-14T17:30:26.197Z,101785.88
2023-04-14T17:32:56.336Z,101788.66
2023-04-14T17:35:24.364Z,101797.84
2023-04-14T17:37:52.819Z,101794.41
2023-04-14T17:40:20.831Z,101802.63
2023-04-14T17:42:48.865Z,101796.59
2023-04-14T17:45:22.956Z,101783.88
2023-04-14T17:47:51.367Z,101799.53
2023-04-14T17:50:21.133Z,101805.94
2023-04-14T17:52:51.056Z,101811.41
2023-04-14T17:55:19.460Z,101809.81
2023-04-14T17:57:47.590Z,101801.88
2023-04-14T18:00:17.008Z,101809.31
2023-04-14T18:02:45.264Z,101804.84
2023-04-14T18:05:14.057Z,101799.66
2023-04-14T18:07:44.283Z,101809.59
2023-04-14T18:10:12.368Z,101807.09
2023-04-14T18:12:40.363Z,101831.28
2023-04-14T18:15:12.000Z,101811.94
2023-04-14T18:17:39.988Z,101812.81
2023-04-14T18:20:10.735Z,101810.25
2023-04-14T18:22:38.994Z,101806.25
2023-04-14T18:25:09.698Z,101814.03
2023-04-14T18:30:10.669Z,101823.22
2023-04-14T18:32:38.716Z,101812.84
2023-04-14T18:35:07.495Z,101826.06
2023-04-14T18:37:36.045Z,101822.63
2023-04-14T18:40:04.466Z,101834.38
2023-04-14T18:42:35.893Z,101821.91
2023-04-14T18:45:04.374Z,101824.00
2023-04-14T18:47:33.204Z,101822.19
2023-04-14T18:50:01.447Z,101827.63
2023-04-14T18:52:29.416Z,101825.91
2023-04-14T18:54:57.700Z,101827.81
2023-04-14T18:57:25.767Z,101828.00
2023-04-14T18:59:55.151Z,101841.22
2023-04-14T19:02:23.386Z,101832.38
2023-04-14T19:04:51.648Z,101845.75
2023-04-14T19:07:19.778Z,101851.22
2023-04-14T19:09:47.727Z,101843.28
2023-04-14T19:12:27.711Z,101842.47
2023-04-14T19:14:57.848Z,101839.81
2023-04-14T19:17:26.096Z,101847.94
2023-04-14T19:19:54.057Z,101833.69
2023-04-14T19:22:22.197Z,101841.81
2023-04-14T19:24:51.136Z,101838.28
2023-04-14T19:27:19.339Z,101841.00
2023-04-14T19:29:47.517Z,101842.75
2023-04-14T19:32:17.146Z,101834.81
2023-04-14T19:34:45.189Z,101824.19
2023-04-14T19:37:13.565Z,101798.56
2023-04-14T19:39:41.576Z,101831.44
2023-04-14T19:42:09.610Z,101839.56
2023-04-14T19:44:37.515Z,101827.13
2023-04-14T19:47:05.990Z,101823.56
2023-04-14T19:49:35.562Z,101834.38
2023-04-14T19:52:04.721Z,101838.00
2023-04-14T19:54:32.775Z,101835.41
2023-04-14T19:57:00.806Z,101826.78
2023-04-14T19:59:29.444Z,101849.75
2023-04-14T20:01:57.534Z,101827.56
2023-04-14T20:04:25.764Z,101817.13
2023-04-14T20:06:55.938Z,101828.50
2023-04-14T20:09:24.470Z,101825.03
2023-04-14T20:11:52.553Z,101835.84
2023-04-14T20:14:20.477Z,101832.38
2023-04-14T20:16:48.533Z,101832.38
2023-04-14T20:19:18.799Z,101825.44
2023-04-14T20:21:46.731Z,101833.38
2023-04-14T20:24:16.071Z,101837.03
2023-04-14T20:26:44.958Z,101843.41
2023-04-14T20:29:13.159Z,101841.66
2023-04-14T20:31:42.691Z,101839.94
2023-04-14T20:34:12.100Z,101841.75
2023-04-14T20:36:40.194Z,101841.84
2023-04-14T20:39:08.445Z,101833.91
2023-04-14T20:41:38.113Z,101828.53
2023-04-14T20:44:06.251Z,101830.44
2023-04-14T20:46:34.491Z,101831.50
2023-04-14T20:49:02.663Z,101839.59
2023-04-14T20:51:32.240Z,101846.75
2023-04-14T20:54:01.835Z,101847.72
2023-04-14T20:56:30.813Z,101845.97
2023-04-14T20:59:00.613Z,101848.75
2023-04-14T21:01:28.816Z,101850.53
2023-04-14T21:03:57.241Z,101845.25
2023-04-14T21:06:25.848Z,101837.75
2023-04-14T21:08:53.821Z,101843.63
2023-04-14T21:11:21.876Z,101843.63
2023-04-14T21:15:45.553Z,101845.44
2023-04-14T21:16:39.434Z,101850.88
2023-04-14T21:19:07.462Z,101853.63
2023-04-14T21:21:35.515Z,101848.34
2023-04-14T21:24:03.524Z,101845.78
2023-04-14T21:26:31.712Z,101844.13
2023-04-14T21:28:59.864Z,101842.38
2023-04-14T21:31:28.426Z,101841.63
2023-04-14T21:33:57.985Z,101848.59
2023-04-14T21:36:25.959Z,101848.72
2023-04-14T21:38:53.880Z,101841.63
2023-04-14T21:41:22.029Z,101844.28
2023-04-14T21:43:50.014Z,101841.63
2023-04-14T21:46:18.089Z,101851.44
2023-04-14T21:48:46.210Z,101846.09
2023-04-14T21:51:15.852Z,101842.63
2023-04-14T21:53:43.840Z,101854.22
2023-04-14T21:56:12.909Z,101832.72
2023-04-14T21:58:41.010Z,101848.59
2023-04-14T22:01:10.350Z,101760.22
2023-04-14T22:03:41.219Z,101848.28
2023-04-14T22:06:11.258Z,101806.47
2023-04-14T22:08:41.798Z,101846.13
2023-04-14T22:11:09.888Z,101849.50
2023-04-14T22:13:38.004Z,101848.47
2023-04-14T22:16:06.612Z,101844.66
2023-04-14T22:18:35.804Z,101837.44
2023-04-14T22:21:04.840Z,101844.44
2023-04-14T22:23:33.041Z,101840.97
2023-04-14T22:26:03.560Z,101841.56
2023-04-14T22:28:31.758Z,101844.19
2023-04-14T22:30:59.702Z,101852.97
2023-04-14T22:33:27.693Z,101856.53
2023-04-14T22:35:55.622Z,101856.47
2023-04-14T22:38:23.606Z,101863.56
2023-04-14T22:40:52.674Z,101823.78
2023-04-14T22:43:22.306Z,101861.66
2023-04-14T22:45:51.010Z,101850.31
2023-04-14T22:48:18.971Z,101859.75
2023-04-14T22:50:47.104Z,101871.44
2023-04-14T22:53:15.215Z,101857.16
2023-04-14T22:55:44.066Z,101871.44
2023-04-14T22:58:16.742Z,101864.34
2023-04-14T23:00:46.953Z,101859.94
2023-04-14T23:03:15.421Z,101860.00
2023-04-14T23:05:44.641Z,101865.44
2023-04-14T23:08:12.763Z,101863.69
2023-04-14T23:10:40.676Z,101868.16
2023-04-14T23:13:08.673Z,101877.16
2023-04-14T23:15:36.847Z,101863.84
2023-04-14T23:18:06.499Z,101796.66
2023-04-14T23:20:34.578Z,101868.59
2023-04-14T23:23:02.692Z,101868.53
2023-04-14T23:25:30.908Z,101872.25
2023-04-14T23:27:58.927Z,101869.56
2023-04-14T23:30:27.520Z,101853.06
2023-04-14T23:32:55.456Z,101871.44
2023-04-14T23:35:24.934Z,101868.75
2023-04-14T23:37:53.148Z,101868.00
2023-04-14T23:40:21.378Z,101878.63
2023-04-14T23:42:49.377Z,101876.88
2023-04-14T23:45:17.355Z,101868.94
2023-04-14T23:47:45.408Z,101879.66
2023-04-14T23:50:13.357Z,101872.66
2023-04-14T23:52:42.800Z,101884.13
2023-04-14T23:55:10.973Z,101878.84
2023-04-14T23:57:39.056Z,101877.03
